sensor_id;sensor_type;location;lat;lon;timestamp;pressure;altitude;pressure_sealevel;temperature;humidity
23899;BME280;20544;50.018;20.010;2022-08-19T00:00:44;98347.16;;;21.14;100.00
23899;BME280;20544;50.018;20.010;2022-08-19T00:04:04;98341.20;;;21.12;100.00
23899;BME280;20544;50.018;20.010;2022-08-19T00:07:27;98338.52;;;21.17;100.00
23899;BME280;20544;50.018;20.010;2022-08-19T00:10:43;98344.16;;;21.10;100.00
23899;BME280;20544;50.018;20.010;2022-08-19T00:14:00;98344.44;;;21.09;100.00
23899;BME280;20544;50.018;20.010;2022-08-19T00:17:17;98340.96;;;21.13;100.00
23899;BME280;20544;50.018;20.010;2022-08-19T00:20:33;98345.55;;;21.18;100.00
23899;BME280;20544;50.018;20.010;2022-08-19T00:23:50;98342.07;;;21.23;100.00
23899;BME280;20544;50.018;20.010;2022-08-19T00:27:07;98347.46;;;21.23;100.00
23899;BME280;20544;50.018;20.010;2022-08-19T00:30:26;98337.77;;;21.27;100.00
23899;BME280;20544;50.018;20.010;2022-08-19T00:33:42;98338.84;;;21.26;100.00
23899;BME280;20544;50.018;20.010;2022-08-19T00:36:59;98338.03;;;21.25;100.00
23899;BME280;20544;50.018;20.010;2022-08-19T00:40:16;98333.70;;;21.19;100.00
23899;BME280;20544;50.018;20.010;2022-08-19T00:43:36;98337.73;;;21.16;100.00
23899;BME280;20544;50.018;20.010;2022-08-19T00:46:55;98332.91;;;21.24;100.00
23899;BME280;20544;50.018;20.010;2022-08-19T00:50:17;98335.63;;;21.29;100.00
23899;BME280;20544;50.018;20.010;2022-08-19T00:53:35;98341.00;;;21.24;100.00
23899;BME280;20544;50.018;20.010;2022-08-19T00:56:52;98339.34;;;21.12;100.00
23899;BME280;20544;50.018;20.010;2022-08-19T01:00:12;98334.42;;;21.04;100.00
23899;BME280;20544;50.018;20.010;2022-08-19T01:03:31;98325.48;;;20.98;100.00
23899;BME280;20544;50.018;20.010;2022-08-19T01:06:49;98320.07;;;20.93;100.00
23899;BME280;20544;50.018;20.010;2022-08-19T01:10:09;98327.30;;;20.82;100.00
23899;BME280;20544;50.018;20.010;2022-08-19T01:13:29;98324.77;;;20.71;100.00
23899;BME280;20544;50.018;20.010;2022-08-19T01:16:51;98313.66;;;20.62;100.00
23899;BME280;20544;50.018;20.010;2022-08-19T01:20:13;98305.10;;;20.70;100.00
23899;BME280;20544;50.018;20.010;2022-08-19T01:23:31;98302.08;;;20.61;100.00
23899;BME280;20544;50.018;20.010;2022-08-19T01:26:56;98307.11;;;20.47;100.00
23899;BME280;20544;50.018;20.010;2022-08-19T01:30:19;98300.06;;;20.41;100.00
23899;BME280;20544;50.018;20.010;2022-08-19T01:33:35;98290.39;;;20.45;100.00
23899;BME280;20544;50.018;20.010;2022-08-19T01:36:51;98287.76;;;20.56;100.00
23899;BME280;20544;50.018;20.010;2022-08-19T01:40:13;98288.34;;;20.63;100.00
23899;BME280;20544;50.018;20.010;2022-08-19T01:43:32;98283.55;;;20.70;100.00
23899;BME280;20544;50.018;20.010;2022-08-19T01:46:50;98283.05;;;20.73;100.00
23899;BME280;20544;50.018;20.010;2022-08-19T01:50:11;98293.83;;;20.73;100.00
23899;BME280;20544;50.018;20.010;2022-08-19T01:53:29;98301.02;;;20.62;100.00
23899;BME280;20544;50.018;20.010;2022-08-19T01:56:46;98304.78;;;20.61;100.00
23899;BME280;20544;50.018;20.010;2022-08-19T02:00:03;98292.70;;;20.69;100.00
23899;BME280;20544;50.018;20.010;2022-08-19T02:03:24;98297.20;;;20.58;100.00
23899;BME280;20544;50.018;20.010;2022-08-19T02:06:40;98297.70;;;20.50;100.00
23899;BME280;20544;50.018;20.010;2022-08-19T02:09:57;98295.51;;;20.47;100.00
23899;BME280;20544;50.018;20.010;2022-08-19T02:13:19;98292.55;;;20.48;100.00
23899;BME280;20544;50.018;20.010;2022-08-19T02:16:36;98282.78;;;20.37;100.00
23899;BME280;20544;50.018;20.010;2022-08-19T02:19:53;98290.52;;;20.28;100.00
23899;BME280;20544;50.018;20.010;2022-08-19T02:23:13;98283.81;;;20.31;100.00
23899;BME280;20544;50.018;20.010;2022-08-19T02:26:30;98279.59;;;20.40;100.00
23899;BME280;20544;50.018;20.010;2022-08-19T02:29:50;98279.62;;;20.45;100.00
23899;BME280;20544;50.018;20.010;2022-08-19T02:33:06;98276.69;;;20.52;100.00
23899;BME280;20544;50.018;20.010;2022-08-19T02:36:24;98276.69;;;20.52;100.00
23899;BME280;20544;50.018;20.010;2022-08-19T02:39:41;98277.25;;;20.54;100.00
23899;BME280;20544;50.018;20.010;2022-08-19T02:42:57;98276.16;;;20.50;100.00
23899;BME280;20544;50.018;20.010;2022-08-19T02:46:17;98288.26;;;20.47;100.00
23899;BME280;20544;50.018;20.010;2022-08-19T02:49:36;98285.00;;;20.45;100.00
23899;BME280;20544;50.018;20.010;2022-08-19T02:52:52;98283.34;;;20.39;100.00
23899;BME280;20544;50.018;20.010;2022-08-19T02:56:09;98282.75;;;20.32;100.00
23899;BME280;20544;50.018;20.010;2022-08-19T02:59:26;98276.23;;;20.23;100.00
23899;BME280;20544;50.018;20.010;2022-08-19T03:02:45;98285.06;;;20.18;100.00
23899;BME280;20544;50.018;20.010;2022-08-19T03:06:10;98294.97;;;20.12;100.00
23899;BME280;20544;50.018;20.010;2022-08-19T03:09:28;98294.39;;;20.05;100.00
23899;BME280;20544;50.018;20.010;2022-08-19T03:12:45;98298.98;;;20.10;100.00
23899;BME280;20544;50.018;20.010;2022-08-19T03:16:03;98296.86;;;20.12;100.00
23899;BME280;20544;50.018;20.010;2022-08-19T03:19:21;98302.12;;;19.96;100.00
23899;BME280;20544;50.018;20.010;2022-08-19T03:22:38;98303.93;;;19.91;100.00
23899;BME280;20544;50.018;20.010;2022-08-19T03:25:55;98306.01;;;19.83;100.00
23899;BME280;20544;50.018;20.010;2022-08-19T03:29:15;98304.42;;;19.87;100.00
23899;BME280;20544;50.018;20.010;2022-08-19T03:32:33;98308.93;;;19.82;100.00
23899;BME280;20544;50.018;20.010;2022-08-19T03:36:05;98301.50;;;19.89;100.00
23899;BME280;20544;50.018;20.010;2022-08-19T03:39:24;98306.09;;;19.94;100.00
23899;BME280;20544;50.018;20.010;2022-08-19T03:42:41;98313.68;;;19.97;100.00
23899;BME280;20544;50.018;20.010;2022-08-19T03:46:04;98316.15;;;20.03;100.00
23899;BME280;20544;50.018;20.010;2022-08-19T03:49:24;98318.04;;;20.03;100.00
23899;BME280;20544;50.018;20.010;2022-08-19T03:52:43;98321.18;;;19.95;100.00
23899;BME280;20544;50.018;20.010;2022-08-19T03:56:04;98320.38;;;19.94;100.00
23899;BME280;20544;50.018;20.010;2022-08-19T03:59:29;98324.75;;;20.00;100.00
23899;BME280;20544;50.018;20.010;2022-08-19T04:02:47;98316.11;;;19.98;100.00
23899;BME280;20544;50.018;20.010;2022-08-19T04:06:14;98319.91;;;20.02;100.00
23899;BME280;20544;50.018;20.010;2022-08-19T04:09:32;98312.39;;;20.04;100.00
23899;BME280;20544;50.018;20.010;2022-08-19T04:12:49;98305.69;;;20.07;100.00
23899;BME280;20544;50.018;20.010;2022-08-19T04:16:06;98317.02;;;20.09;100.00
23899;BME280;20544;50.018;20.010;2022-08-19T04:19:23;98300.05;;;20.09;100.00
23899;BME280;20544;50.018;20.010;2022-08-19T04:22:40;98315.39;;;20.08;100.00
23899;BME280;20544;50.018;20.010;2022-08-19T04:25:57;98324.18;;;19.98;100.00
23899;BME280;20544;50.018;20.010;2022-08-19T04:29:14;98333.88;;;19.99;100.00
23899;BME280;20544;50.018;20.010;2022-08-19T04:32:33;98313.59;;;19.86;100.00
23899;BME280;20544;50.018;20.010;2022-08-19T04:35:53;98309.00;;;19.87;100.00
23899;BME280;20544;50.018;20.010;2022-08-19T04:39:12;98320.88;;;19.91;100.00
23899;BME280;20544;50.018;20.010;2022-08-19T04:42:30;98322.81;;;19.96;100.00
23899;BME280;20544;50.018;20.010;2022-08-19T04:45:53;98321.48;;;19.98;100.00
23899;BME280;20544;50.018;20.010;2022-08-19T04:49:11;98334.14;;;19.98;100.00
23899;BME280;20544;50.018;20.010;2022-08-19T04:52:28;98338.47;;;19.99;100.00
23899;BME280;20544;50.018;20.010;2022-08-19T04:55:46;98339.31;;;20.04;100.00
23899;BME280;20544;50.018;20.010;2022-08-19T04:59:02;98347.20;;;20.11;100.00
23899;BME280;20544;50.018;20.010;2022-08-19T05:02:19;98351.30;;;20.19;100.00
23899;BME280;20544;50.018;20.010;2022-08-19T05:05:39;98354.83;;;20.25;100.00
23899;BME280;20544;50.018;20.010;2022-08-19T05:08:57;98358.39;;;20.30;100.00
23899;BME280;20544;50.018;20.010;2022-08-19T05:12:15;98363.02;;;20.35;100.00
23899;BME280;20544;50.018;20.010;2022-08-19T05:15:34;98366.81;;;20.39;100.00
23899;BME280;20544;50.018;20.010;2022-08-19T05:18:51;98350.96;;;20.43;100.00
23899;BME280;20544;50.018;20.010;2022-08-19T05:22:18;98355.59;;;20.47;100.00
23899;BME280;20544;50.018;20.010;2022-08-19T05:25:48;98363.94;;;20.51;100.00
23899;BME280;20544;50.018;20.010;2022-08-19T05:29:05;98365.91;;;20.61;100.00
23899;BME280;20544;50.018;20.010;2022-08-19T05:32:23;98374.11;;;20.71;100.00
23899;BME280;20544;50.018;20.010;2022-08-19T05:35:42;98372.81;;;20.79;100.00
23899;BME280;20544;50.018;20.010;2022-08-19T05:38:59;98381.50;;;20.86;100.00
23899;BME280;20544;50.018;20.010;2022-08-19T05:42:17;98378.03;;;20.96;100.00
23899;BME280;20544;50.018;20.010;2022-08-19T05:45:37;98376.46;;;21.00;100.00
23899;BME280;20544;50.018;20.010;2022-08-19T05:48:56;98382.67;;;21.06;100.00
23899;BME280;20544;50.018;20.010;2022-08-19T05:52:15;98380.57;;;21.13;100.00
23899;BME280;20544;50.018;20.010;2022-08-19T05:55:34;98364.42;;;21.18;100.00
23899;BME280;20544;50.018;20.010;2022-08-19T05:58:51;98370.14;;;21.32;100.00
23899;BME280;20544;50.018;20.010;2022-08-19T06:02:10;98380.19;;;21.47;100.00
23899;BME280;20544;50.018;20.010;2022-08-19T06:05:26;98378.67;;;21.61;100.00
23899;BME280;20544;50.018;20.010;2022-08-19T06:08:45;98375.48;;;21.75;100.00
23899;BME280;20544;50.018;20.010;2022-08-19T06:12:02;98380.13;;;21.90;100.00
23899;BME280;20544;50.018;20.010;2022-08-19T06:15:19;98383.12;;;22.04;100.00
23899;BME280;20544;50.018;20.010;2022-08-19T06:18:39;98381.27;;;22.20;100.00
23899;BME280;20544;50.018;20.010;2022-08-19T06:21:58;98381.27;;;22.30;100.00
23899;BME280;20544;50.018;20.010;2022-08-19T06:25:17;98387.53;;;22.46;100.00
23899;BME280;20544;50.018;20.010;2022-08-19T06:28:35;98395.89;;;22.65;100.00
23899;BME280;20544;50.018;20.010;2022-08-19T06:31:54;98389.94;;;22.84;100.00
23899;BME280;20544;50.018;20.010;2022-08-19T06:35:16;98387.47;;;23.03;100.00
23899;BME280;20544;50.018;20.010;2022-08-19T06:38:34;98390.69;;;23.15;100.00
23899;BME280;20544;50.018;20.010;2022-08-19T06:41:59;98391.72;;;23.45;100.00
23899;BME280;20544;50.018;20.010;2022-08-19T06:45:19;98394.92;;;23.57;100.00
23899;BME280;20544;50.018;20.010;2022-08-19T06:48:45;98402.42;;;23.76;100.00
23899;BME280;20544;50.018;20.010;2022-08-19T06:52:03;98406.16;;;23.90;100.00
23899;BME280;20544;50.018;20.010;2022-08-19T06:55:21;98412.59;;;24.05;100.00
23899;BME280;20544;50.018;20.010;2022-08-19T06:58:40;98414.97;;;24.17;100.00
23899;BME280;20544;50.018;20.010;2022-08-19T07:01:56;98420.56;;;24.31;100.00
23899;BME280;20544;50.018;20.010;2022-08-19T07:05:17;98419.56;;;24.56;100.00
23899;BME280;20544;50.018;20.010;2022-08-19T07:08:34;98432.41;;;24.80;100.00
23899;BME280;20544;50.018;20.010;2022-08-19T07:11:52;98439.72;;;25.14;100.00
23899;BME280;20544;50.018;20.010;2022-08-19T07:15:16;98436.52;;;25.36;100.00
23899;BME280;20544;50.018;20.010;2022-08-19T07:18:56;98438.52;;;25.55;100.00
23899;BME280;20544;50.018;20.010;2022-08-19T07:22:15;98432.30;;;25.73;100.00
23899;BME280;20544;50.018;20.010;2022-08-19T07:25:33;98436.53;;;25.84;100.00
23899;BME280;20544;50.018;20.010;2022-08-19T07:28:50;98440.99;;;26.19;99.02
23899;BME280;20544;50.018;20.010;2022-08-19T07:32:07;98445.54;;;26.42;95.94
23899;BME280;20544;50.018;20.010;2022-08-19T07:35:24;98449.47;;;26.69;95.18
23899;BME280;20544;50.018;20.010;2022-08-19T07:38:43;98449.97;;;26.90;93.10
23899;BME280;20544;50.018;20.010;2022-08-19T07:42:04;98449.02;;;27.14;92.63
23899;BME280;20544;50.018;20.010;2022-08-19T07:45:22;98451.51;;;27.43;90.65
23899;BME280;20544;50.018;20.010;2022-08-19T07:48:42;98455.84;;;27.72;89.95
23899;BME280;20544;50.018;20.010;2022-08-19T07:51:58;98457.37;;;28.06;88.47
23899;BME280;20544;50.018;20.010;2022-08-19T07:55:19;98462.19;;;28.46;86.18
23899;BME280;20544;50.018;20.010;2022-08-19T07:58:41;98464.22;;;28.77;85.03
23899;BME280;20544;50.018;20.010;2022-08-19T08:01:59;98471.50;;;29.13;83.07
23899;BME280;20544;50.018;20.010;2022-08-19T08:05:16;98477.02;;;29.45;80.72
23899;BME280;20544;50.018;20.010;2022-08-19T08:08:51;98472.78;;;29.79;80.04
23899;BME280;20544;50.018;20.010;2022-08-19T08:12:30;98476.91;;;30.16;78.25
23899;BME280;20544;50.018;20.010;2022-08-19T08:15:51;98480.64;;;30.38;77.24
23899;BME280;20544;50.018;20.010;2022-08-19T08:19:08;98494.02;;;30.57;76.58
23899;BME280;20544;50.018;20.010;2022-08-19T08:22:26;98493.53;;;30.55;77.92
23899;BME280;20544;50.018;20.010;2022-08-19T08:25:58;98486.59;;;30.84;76.34
23899;BME280;20544;50.018;20.010;2022-08-19T08:29:16;98490.27;;;31.06;75.17
23899;BME280;20544;50.018;20.010;2022-08-19T08:32:33;98493.69;;;31.50;75.28
23899;BME280;20544;50.018;20.010;2022-08-19T08:35:53;98503.09;;;31.88;72.18
23899;BME280;20544;50.018;20.010;2022-08-19T08:39:09;98502.65;;;32.07;69.74
23899;BME280;20544;50.018;20.010;2022-08-19T08:42:29;98492.67;;;31.72;71.04
23899;BME280;20544;50.018;20.010;2022-08-19T08:45:49;98497.38;;;31.63;71.58
23899;BME280;20544;50.018;20.010;2022-08-19T08:49:13;98489.78;;;31.04;73.68
23899;BME280;20544;50.018;20.010;2022-08-19T08:52:36;98496.52;;;31.24;72.81
23899;BME280;20544;50.018;20.010;2022-08-19T08:55:54;98491.06;;;31.06;74.37
23899;BME280;20544;50.018;20.010;2022-08-19T08:59:15;98484.08;;;31.35;73.26
23899;BME280;20544;50.018;20.010;2022-08-19T09:02:35;98490.77;;;31.55;72.52
23899;BME280;20544;50.018;20.010;2022-08-19T09:05:58;98493.70;;;31.89;71.18
23899;BME280;20544;50.018;20.010;2022-08-19T09:09:20;98489.19;;;32.23;69.30
23899;BME280;20544;50.018;20.010;2022-08-19T09:12:44;98475.75;;;32.51;68.63
23899;BME280;20544;50.018;20.010;2022-08-19T09:16:09;98485.70;;;32.77;67.64
23899;BME280;20544;50.018;20.010;2022-08-19T09:19:57;98482.38;;;33.05;68.31
23899;BME280;20544;50.018;20.010;2022-08-19T09:23:19;98487.96;;;32.96;65.68
23899;BME280;20544;50.018;20.010;2022-08-19T09:26:42;98479.28;;;33.06;66.76
23899;BME280;20544;50.018;20.010;2022-08-19T09:30:02;98471.17;;;33.10;64.57
23899;BME280;20544;50.018;20.010;2022-08-19T09:33:22;98472.56;;;33.16;64.48
23899;BME280;20544;50.018;20.010;2022-08-19T09:36:40;98471.77;;;33.28;65.09
23899;BME280;20544;50.018;20.010;2022-08-19T09:40:01;98476.39;;;33.36;63.31
23899;BME280;20544;50.018;20.010;2022-08-19T09:43:29;98463.52;;;33.28;62.96
23899;BME280;20544;50.018;20.010;2022-08-19T09:47:06;98468.50;;;33.35;62.88
23899;BME280;20544;50.018;20.010;2022-08-19T09:50:34;98462.05;;;32.85;62.88
23899;BME280;20544;50.018;20.010;2022-08-19T09:53:55;98464.59;;;33.36;63.29
23899;BME280;20544;50.018;20.010;2022-08-19T09:57:20;98452.94;;;33.51;64.09
23899;BME280;20544;50.018;20.010;2022-08-19T10:00:39;98453.95;;;33.34;61.98
23899;BME280;20544;50.018;20.010;2022-08-19T10:03:59;98455.98;;;33.25;65.13
23899;BME280;20544;50.018;20.010;2022-08-19T10:07:20;98451.25;;;33.13;62.47
23899;BME280;20544;50.018;20.010;2022-08-19T10:10:39;98441.95;;;32.93;62.67
23899;BME280;20544;50.018;20.010;2022-08-19T10:14:01;98443.59;;;33.06;62.52
23899;BME280;20544;50.018;20.010;2022-08-19T10:17:26;98447.25;;;33.11;61.72
23899;BME280;20544;50.018;20.010;2022-08-19T10:20:51;98441.38;;;33.00;60.17
23899;BME280;20544;50.018;20.010;2022-08-19T10:24:10;98433.80;;;32.84;59.53
23899;BME280;20544;50.018;20.010;2022-08-19T10:27:27;98438.73;;;32.91;60.96
23899;BME280;20544;50.018;20.010;2022-08-19T10:30:46;98427.75;;;32.91;59.58
23899;BME280;20544;50.018;20.010;2022-08-19T10:34:03;98437.94;;;32.90;58.71
23899;BME280;20544;50.018;20.010;2022-08-19T10:37:21;98424.18;;;32.78;57.98
23899;BME280;20544;50.018;20.010;2022-08-19T10:40:39;98430.99;;;32.72;56.05
23899;BME280;20544;50.018;20.010;2022-08-19T10:43:57;98434.42;;;32.69;56.78
23899;BME280;20544;50.018;20.010;2022-08-19T10:47:19;98433.67;;;32.81;57.44
23899;BME280;20544;50.018;20.010;2022-08-19T10:50:38;98440.43;;;32.83;56.97
23899;BME280;20544;50.018;20.010;2022-08-19T10:54:10;98450.15;;;32.81;56.31
23899;BME280;20544;50.018;20.010;2022-08-19T10:57:31;98431.16;;;32.76;57.02
23899;BME280;20544;50.018;20.010;2022-08-19T11:00:55;98435.91;;;32.66;57.26
23899;BME280;20544;50.018;20.010;2022-08-19T11:04:12;98435.52;;;32.55;57.16
23899;BME280;20544;50.018;20.010;2022-08-19T11:07:31;98437.05;;;32.65;58.73
23899;BME280;20544;50.018;20.010;2022-08-19T11:10:47;98438.05;;;32.61;58.78
23899;BME280;20544;50.018;20.010;2022-08-19T11:14:03;98427.50;;;32.50;59.76
23899;BME280;20544;50.018;20.010;2022-08-19T11:17:19;98412.83;;;32.46;59.49
23899;BME280;20544;50.018;20.010;2022-08-19T11:20:35;98411.95;;;32.54;60.55
23899;BME280;20544;50.018;20.010;2022-08-19T11:23:54;98405.20;;;32.52;60.53
23899;BME280;20544;50.018;20.010;2022-08-19T11:27:12;98405.86;;;32.49;57.53
23899;BME280;20544;50.018;20.010;2022-08-19T11:30:28;98392.75;;;32.54;58.47
23899;BME280;20544;50.018;20.010;2022-08-19T11:33:45;98394.48;;;32.59;59.33
23899;BME280;20544;50.018;20.010;2022-08-19T11:37:04;98389.70;;;32.68;58.41
23899;BME280;20544;50.018;20.010;2022-08-19T11:40:21;98389.57;;;32.65;59.58
23899;BME280;20544;50.018;20.010;2022-08-19T11:43:37;98385.81;;;32.69;60.87
23899;BME280;20544;50.018;20.010;2022-08-19T11:46:53;98385.03;;;32.69;61.18
23899;BME280;20544;50.018;20.010;2022-08-19T11:50:16;98382.13;;;32.53;61.64
23899;BME280;20544;50.018;20.010;2022-08-19T11:53:32;98374.84;;;32.36;63.71
23899;BME280;20544;50.018;20.010;2022-08-19T11:56:52;98376.06;;;32.26;63.57
23899;BME280;20544;50.018;20.010;2022-08-19T12:00:15;98378.51;;;32.19;65.00
23899;BME280;20544;50.018;20.010;2022-08-19T12:03:34;98385.34;;;32.13;59.33
23899;BME280;20544;50.018;20.010;2022-08-19T12:06:51;98388.42;;;32.11;61.93
23899;BME280;20544;50.018;20.010;2022-08-19T12:10:08;98386.36;;;32.08;59.91
23899;BME280;20544;50.018;20.010;2022-08-19T12:13:27;98391.70;;;32.04;57.16
23899;BME280;20544;50.018;20.010;2022-08-19T12:16:45;98396.13;;;31.97;57.36
23899;BME280;20544;50.018;20.010;2022-08-19T12:20:03;98382.34;;;31.84;57.47
23899;BME280;20544;50.018;20.010;2022-08-19T12:23:22;98381.87;;;31.82;58.14
23899;BME280;20544;50.018;20.010;2022-08-19T12:26:39;98370.42;;;31.80;57.77
23899;BME280;20544;50.018;20.010;2022-08-19T12:30:01;98381.08;;;31.82;55.42
23899;BME280;20544;50.018;20.010;2022-08-19T12:33:20;98379.61;;;31.84;57.52
23899;BME280;20544;50.018;20.010;2022-08-19T12:36:37;98382.00;;;31.86;57.31
23899;BME280;20544;50.018;20.010;2022-08-19T12:39:54;98376.05;;;31.84;57.63
23899;BME280;20544;50.018;20.010;2022-08-19T12:43:11;98364.77;;;31.85;56.60
23899;BME280;20544;50.018;20.010;2022-08-19T12:46:29;98366.55;;;31.81;54.33
23899;BME280;20544;50.018;20.010;2022-08-19T12:49:46;98364.16;;;31.80;55.24
23899;BME280;20544;50.018;20.010;2022-08-19T12:53:03;98372.72;;;31.78;54.93
23899;BME280;20544;50.018;20.010;2022-08-19T12:56:20;98359.80;;;31.78;55.20
23899;BME280;20544;50.018;20.010;2022-08-19T12:59:38;98362.88;;;31.77;56.17
23899;BME280;20544;50.018;20.010;2022-08-19T13:02:55;98354.52;;;31.73;56.56
23899;BME280;20544;50.018;20.010;2022-08-19T13:06:11;98349.83;;;31.74;55.26
23899;BME280;20544;50.018;20.010;2022-08-19T13:09:29;98364.69;;;31.73;54.48
23899;BME280;20544;50.018;20.010;2022-08-19T13:12:48;98362.27;;;31.71;53.31
23899;BME280;20544;50.018;20.010;2022-08-19T13:16:09;98363.88;;;31.72;54.54
23899;BME280;20544;50.018;20.010;2022-08-19T13:19:26;98358.73;;;31.71;56.09
23899;BME280;20544;50.018;20.010;2022-08-19T13:22:42;98345.38;;;31.69;56.98
23899;BME280;20544;50.018;20.010;2022-08-19T13:26:01;98348.91;;;31.70;56.38
23899;BME280;20544;50.018;20.010;2022-08-19T13:29:19;98341.50;;;31.70;56.23
23899;BME280;20544;50.018;20.010;2022-08-19T13:32:50;98347.09;;;31.74;50.77
23899;BME280;20544;50.018;20.010;2022-08-19T13:36:25;98343.91;;;31.72;51.35
23899;BME280;20544;50.018;20.010;2022-08-19T13:39:41;98339.69;;;31.74;51.72
23899;BME280;20544;50.018;20.010;2022-08-19T13:42:59;98344.49;;;31.77;53.00
23899;BME280;20544;50.018;20.010;2022-08-19T13:46:18;98336.61;;;31.76;54.60
23899;BME280;20544;50.018;20.010;2022-08-19T13:49:37;98336.13;;;31.74;52.79
23899;BME280;20544;50.018;20.010;2022-08-19T13:52:55;98335.34;;;31.73;51.07
23899;BME280;20544;50.018;20.010;2022-08-19T13:56:13;98326.33;;;31.73;51.45
23899;BME280;20544;50.018;20.010;2022-08-19T13:59:33;98326.78;;;31.75;50.58
23899;BME280;20544;50.018;20.010;2022-08-19T14:02:52;98320.17;;;31.76;50.11
23899;BME280;20544;50.018;20.010;2022-08-19T14:06:10;98326.44;;;31.76;50.60
23899;BME280;20544;50.018;20.010;2022-08-19T14:09:27;98326.44;;;31.76;51.48
23899;BME280;20544;50.018;20.010;2022-08-19T14:12:43;98313.55;;;31.77;51.08
23899;BME280;20544;50.018;20.010;2022-08-19T14:16:00;98314.34;;;31.77;51.60
23899;BME280;20544;50.018;20.010;2022-08-19T14:19:16;98317.09;;;31.77;51.44
23899;BME280;20544;50.018;20.010;2022-08-19T14:22:36;98311.95;;;31.76;51.63
23899;BME280;20544;50.018;20.010;2022-08-19T14:25:53;98306.94;;;31.78;51.21
23899;BME280;20544;50.018;20.010;2022-08-19T14:29:19;98300.64;;;31.77;50.68
23899;BME280;20544;50.018;20.010;2022-08-19T14:32:39;98302.94;;;31.75;50.17
23899;BME280;20544;50.018;20.010;2022-08-19T14:35:56;98300.20;;;31.75;49.97
23899;BME280;20544;50.018;20.010;2022-08-19T14:39:13;98298.59;;;31.74;49.69
23899;BME280;20544;50.018;20.010;2022-08-19T14:42:31;98304.41;;;31.73;50.84
23899;BME280;20544;50.018;20.010;2022-08-19T14:45:47;98309.07;;;31.72;48.65
23899;BME280;20544;50.018;20.010;2022-08-19T14:49:05;98308.28;;;31.72;47.86
23899;BME280;20544;50.018;20.010;2022-08-19T14:52:21;98310.55;;;31.70;47.54
23899;BME280;20544;50.018;20.010;2022-08-19T14:55:42;98312.49;;;31.69;48.50
23899;BME280;20544;50.018;20.010;2022-08-19T14:58:59;98301.84;;;31.68;49.16
23899;BME280;20544;50.018;20.010;2022-08-19T15:02:17;98299.78;;;31.65;49.09
23899;BME280;20544;50.018;20.010;2022-08-19T15:05:35;98298.69;;;31.57;47.94
23899;BME280;20544;50.018;20.010;2022-08-19T15:08:52;98291.80;;;31.51;49.23
23899;BME280;20544;50.018;20.010;2022-08-19T15:12:11;98283.79;;;31.45;49.52
23899;BME280;20544;50.018;20.010;2022-08-19T15:15:29;98272.69;;;31.42;50.17
23899;BME280;20544;50.018;20.010;2022-08-19T15:18:48;98271.73;;;31.38;50.24
23899;BME280;20544;50.018;20.010;2022-08-19T15:22:06;98263.72;;;31.33;50.06
23899;BME280;20544;50.018;20.010;2022-08-19T15:25:22;98262.11;;;31.32;51.20
23899;BME280;20544;50.018;20.010;2022-08-19T15:28:38;98254.57;;;31.28;52.03
23899;BME280;20544;50.018;20.010;2022-08-19T15:31:56;98258.64;;;31.22;52.53
23899;BME280;20544;50.018;20.010;2022-08-19T15:35:14;98259.42;;;31.23;52.44
23899;BME280;20544;50.018;20.010;2022-08-19T15:38:31;98251.55;;;31.21;53.14
23899;BME280;20544;50.018;20.010;2022-08-19T15:41:52;98250.63;;;31.17;53.78
23899;BME280;20544;50.018;20.010;2022-08-19T15:45:11;98249.69;;;31.13;54.63
23899;BME280;20544;50.018;20.010;2022-08-19T15:48:28;98254.54;;;31.07;55.63
23899;BME280;20544;50.018;20.010;2022-08-19T15:51:48;98237.16;;;31.03;55.68
23899;BME280;20544;50.018;20.010;2022-08-19T15:55:08;98238.93;;;30.99;56.66
23899;BME280;20544;50.018;20.010;2022-08-19T15:58:26;98242.68;;;30.94;57.17
23899;BME280;20544;50.018;20.010;2022-08-19T16:01:58;98233.84;;;30.89;57.22
23899;BME280;20544;50.018;20.010;2022-08-19T16:05:31;98243.03;;;30.84;57.66
23899;BME280;20544;50.018;20.010;2022-08-19T16:09:02;98244.50;;;30.81;57.90
23899;BME280;20544;50.018;20.010;2022-08-19T16:12:19;98248.70;;;30.79;57.31
23899;BME280;20544;50.018;20.010;2022-08-19T16:15:37;98250.98;;;30.77;57.74
23899;BME280;20544;50.018;20.010;2022-08-19T16:18:54;98257.88;;;30.74;57.94
23899;BME280;20544;50.018;20.010;2022-08-19T16:22:11;98255.03;;;30.71;58.32
23899;BME280;20544;50.018;20.010;2022-08-19T16:25:29;98246.19;;;30.65;58.85
23899;BME280;20544;50.018;20.010;2022-08-19T16:28:48;98250.72;;;30.61;58.79
23899;BME280;20544;50.018;20.010;2022-08-19T16:32:06;98256.38;;;30.56;59.13
23899;BME280;20544;50.018;20.010;2022-08-19T16:35:26;98252.22;;;30.49;59.21
23899;BME280;20544;50.018;20.010;2022-08-19T16:38:43;98259.59;;;30.49;59.85
23899;BME280;20544;50.018;20.010;2022-08-19T16:41:59;98263.27;;;30.44;60.03
23899;BME280;20544;50.018;20.010;2022-08-19T16:45:16;98259.59;;;30.40;60.60
23899;BME280;20544;50.018;20.010;2022-08-19T16:48:33;98265.58;;;30.33;61.01
23899;BME280;20544;50.018;20.010;2022-08-19T16:51:53;98265.75;;;30.28;60.88
23899;BME280;20544;50.018;20.010;2022-08-19T16:55:10;98276.38;;;30.21;61.84
23899;BME280;20544;50.018;20.010;2022-08-19T16:58:30;98270.27;;;30.15;61.86
23899;BME280;20544;50.018;20.010;2022-08-19T17:01:47;98288.12;;;30.13;62.56
23899;BME280;20544;50.018;20.010;2022-08-19T17:05:07;98288.30;;;30.08;62.99
23899;BME280;20544;50.018;20.010;2022-08-19T17:08:25;98282.66;;;30.04;63.11
23899;BME280;20544;50.018;20.010;2022-08-19T17:11:42;98271.11;;;29.98;64.18
23899;BME280;20544;50.018;20.010;2022-08-19T17:14:59;98271.91;;;29.90;64.53